Time;durP1;ratioP1;P1;durP2;ratioP2;P2;SDS_P1;SDS_P2;PMS_P1;PMS_P2;Temp;Humidity;BMP_temperature;BMP_pressure;BME280_temperature;BME280_humidity;BME280_pressure;Samples;Min_cycle;Max_cycle;Signal;HPM_P1;HPM_P2
2022/06/01 00:00:54;;;;;;;;;;;;;;;15.84;82.44;95389.38;5115576;28;1082;-48
2022/06/01 00:03:22;;;;;;;;;;;;;;;15.81;81.62;95383.34;5115144;28;1039;-49
2022/06/01 00:05:48;;;;;;;;;;;;;;;15.87;81.24;95378.22;5123803;27;1997;-49
2022/06/01 00:08:14;;;;;;;;;;;;;;;15.86;81.19;95372.00;5135785;27;1060;-49
2022/06/01 00:10:40;;;;;;;;;;;;;;;15.53;82.04;95366.97;5135699;27;988;-49
2022/06/01 00:13:06;;;;;;;;;;;;;;;15.40;83.40;95372.19;5135579;27;1030;-49
2022/06/01 00:15:32;;;;;;;;;;;;;;;15.27;83.81;95370.16;5135636;27;1064;-49
2022/06/01 00:18:00;;;;;;;;;;;;;;;15.18;84.29;95373.94;5135201;27;1028;-48
2022/06/01 00:20:26;;;;;;;;;;;;;;;15.46;82.93;95367.91;5135355;27;1083;-48
2022/06/01 00:22:52;;;;;;;;;;;;;;;15.54;82.44;95367.84;5135094;27;1083;-48
2022/06/01 00:25:19;;;;;;;;;;;;;;;15.34;82.59;95379.16;5135027;27;2000;-48
2022/06/01 00:27:45;;;;;;;;;;;;;;;15.34;83.52;95370.22;5135299;27;1010;-48
2022/06/01 00:30:12;;;;;;;;;;;;;;;15.35;82.96;95374.63;5135187;27;1024;-49
2022/06/01 00:32:39;;;;;;;;;;;;;;;15.32;83.69;95377.66;5134845;27;1101;-49
2022/06/01 00:35:06;;;;;;;;;;;;;;;15.41;83.68;95374.69;5135473;27;1060;-49
2022/06/01 00:37:32;;;;;;;;;;;;;;;15.28;82.01;95381.75;5134921;27;1011;-48
2022/06/01 00:39:58;;;;;;;;;;;;;;;15.08;83.40;95381.44;5135130;27;967;-49
2022/06/01 00:42:27;;;;;;;;;;;;;;;15.11;82.58;95381.91;5135133;27;951;-49
2022/06/01 00:44:53;;;;;;;;;;;;;;;15.18;83.28;95376.66;5134888;27;2031;-49
2022/06/01 00:47:20;;;;;;;;;;;;;;;15.19;82.83;95378.31;5134675;27;1857;-49
2022/06/01 00:49:48;;;;;;;;;;;;;;;15.25;82.44;95379.41;5134816;27;1902;-49
2022/06/01 00:52:15;;;;;;;;;;;;;;;15.28;82.22;95374.50;5135126;27;1002;-49
2022/06/01 00:54:41;;;;;;;;;;;;;;;15.23;82.78;95376.91;5134408;27;1280;-49
2022/06/01 00:57:09;;;;;;;;;;;;;;;15.14;82.69;95378.00;5135071;27;1039;-49
2022/06/01 00:59:38;;;;;;;;;;;;;;;15.25;82.53;95377.56;5133968;27;1047;-49
2022/06/01 01:02:06;;;;;;;;;;;;;;;15.30;83.06;95374.31;5134618;27;1003;-49
2022/06/01 01:04:33;;;;;;;;;;;;;;;15.13;83.64;95373.66;5134331;27;1937;-49
2022/06/01 01:07:03;;;;;;;;;;;;;;;14.88;84.58;95376.59;5115801;27;1152;-49
2022/06/01 01:09:30;;;;;;;;;;;;;;;14.77;85.40;95368.94;5114059;28;968;-49
2022/06/01 01:11:58;;;;;;;;;;;;;;;14.64;85.82;95369.56;5114319;28;1021;-48
2022/06/01 01:14:26;;;;;;;;;;;;;;;14.64;85.77;95369.56;5113739;28;1036;-49
2022/06/01 01:16:52;;;;;;;;;;;;;;;14.90;85.10;95358.41;5113909;28;965;-48
2022/06/01 01:19:24;;;;;;;;;;;;;;;14.76;84.76;95367.25;5114004;28;1053;-48
2022/06/01 01:21:53;;;;;;;;;;;;;;;14.76;85.11;95372.63;5113655;28;1233;-51
2022/06/01 01:24:22;;;;;;;;;;;;;;;14.79;84.82;95362.34;5113433;28;1944;-48
2022/06/01 01:26:50;;;;;;;;;;;;;;;14.81;84.85;95370.25;5113755;28;1051;-49
2022/06/01 01:29:28;;;;;;;;;;;;;;;14.83;84.88;95373.59;5113959;28;941;-49
2022/06/01 01:31:54;;;;;;;;;;;;;;;14.90;84.12;95374.53;5113756;28;1000;-49
2022/06/01 01:34:20;;;;;;;;;;;;;;;15.03;83.87;95366.69;5113508;28;1023;-49
2022/06/01 01:36:49;;;;;;;;;;;;;;;15.10;83.81;95360.56;5113822;28;984;-48
2022/06/01 01:39:16;;;;;;;;;;;;;;;15.09;84.23;95354.34;5113710;28;973;-48
2022/06/01 01:41:49;;;;;;;;;;;;;;;15.08;84.80;95357.22;5113927;28;967;-48
2022/06/01 01:44:18;;;;;;;;;;;;;;;14.74;84.18;95354.00;5113356;28;1991;-48
2022/06/01 01:46:47;;;;;;;;;;;;;;;14.52;85.07;95358.34;5113635;28;1019;-48
2022/06/01 01:49:14;;;;;;;;;;;;;;;14.50;85.37;95351.50;5113456;28;1195;-48
2022/06/01 01:51:40;;;;;;;;;;;;;;;14.48;85.61;95354.34;5113762;28;1058;-48
2022/06/01 01:54:27;;;;;;;;;;;;;;;14.51;85.60;95347.75;5113273;28;972;-48
2022/06/01 01:57:02;;;;;;;;;;;;;;;14.54;85.33;95344.72;5109496;28;1866;-49
2022/06/01 01:59:40;;;;;;;;;;;;;;;14.62;84.83;95347.38;5113123;28;1012;-49
2022/06/01 02:02:18;;;;;;;;;;;;;;;14.70;85.43;95346.47;5113364;28;984;-48
2022/06/01 02:07:34;;;;;;;;;;;;;;;14.24;85.68;95348.13;5113460;28;1024;-49
2022/06/01 02:12:46;;;;;;;;;;;;;;;14.66;84.32;95345.97;5117574;28;965;-48
2022/06/01 02:15:16;;;;;;;;;;;;;;;14.52;84.41;95346.75;5117165;28;1039;-49
2022/06/01 02:17:49;;;;;;;;;;;;;;;14.43;85.11;95354.06;5117254;28;1016;-49
2022/06/01 02:20:18;;;;;;;;;;;;;;;14.55;84.17;95354.47;5117095;28;965;-49
2022/06/01 02:22:45;;;;;;;;;;;;;;;14.38;84.67;95342.97;5116885;28;1122;-49
2022/06/01 02:25:11;;;;;;;;;;;;;;;14.16;85.44;95353.56;5116668;28;1909;-49
2022/06/01 02:27:39;;;;;;;;;;;;;;;14.13;86.09;95356.59;5117198;28;987;-49
2022/06/01 02:30:14;;;;;;;;;;;;;;;14.27;85.99;95346.94;5116719;28;1033;-48
2022/06/01 02:32:41;;;;;;;;;;;;;;;14.40;85.21;95349.06;5116892;28;1024;-49
2022/06/01 02:35:09;;;;;;;;;;;;;;;14.50;84.92;95357.69;5117112;28;911;-48
2022/06/01 02:37:39;;;;;;;;;;;;;;;14.49;83.78;95356.00;5117140;28;980;-48
2022/06/01 02:40:09;;;;;;;;;;;;;;;14.28;84.24;95353.16;5116696;28;1107;-48
2022/06/01 02:42:42;;;;;;;;;;;;;;;14.12;85.06;95346.88;5116755;28;1024;-48
2022/06/01 02:45:09;;;;;;;;;;;;;;;13.96;85.52;95358.59;5116527;28;2018;-48
2022/06/01 02:47:40;;;;;;;;;;;;;;;13.83;86.10;95353.78;5116861;28;969;-47
2022/06/01 02:50:08;;;;;;;;;;;;;;;13.91;85.78;95355.59;5116769;28;1148;-48
2022/06/01 02:52:34;;;;;;;;;;;;;;;14.16;84.71;95366.19;5116692;28;1064;-48
2022/06/01 02:55:00;;;;;;;;;;;;;;;14.31;84.38;95364.41;5116217;28;1223;-49
2022/06/01 02:57:26;;;;;;;;;;;;;;;14.25;83.56;95359.75;5116529;28;992;-48
2022/06/01 02:59:52;;;;;;;;;;;;;;;14.23;83.96;95362.59;5116171;28;1016;-48
2022/06/01 03:02:19;;;;;;;;;;;;;;;14.28;83.42;95362.06;5116762;28;982;-48
2022/06/01 03:04:45;;;;;;;;;;;;;;;14.06;84.21;95363.72;5116313;28;1914;-48
2022/06/01 03:07:12;;;;;;;;;;;;;;;14.08;84.58;95359.00;5136576;27;1310;-48
2022/06/01 03:09:38;;;;;;;;;;;;;;;13.93;85.06;95363.47;5136822;27;957;-49
2022/06/01 03:12:05;;;;;;;;;;;;;;;14.01;84.97;95364.25;5136712;27;1079;-49
2022/06/01 03:14:32;;;;;;;;;;;;;;;14.04;85.67;95368.44;5136529;27;1114;-48
2022/06/01 03:16:58;;;;;;;;;;;;;;;14.13;85.40;95374.59;5136495;27;1016;-48
2022/06/01 03:19:25;;;;;;;;;;;;;;;14.19;84.95;95374.75;5136810;27;1051;-48
2022/06/01 03:21:51;;;;;;;;;;;;;;;13.98;85.04;95370.00;5135741;27;1075;-49
2022/06/01 03:24:17;;;;;;;;;;;;;;;13.84;85.90;95378.78;5136478;27;1999;-48
2022/06/01 03:26:43;;;;;;;;;;;;;;;13.92;86.16;95372.53;5136373;27;964;-48
2022/06/01 03:29:09;;;;;;;;;;;;;;;14.00;85.98;95375.16;5136720;27;990;-48
2022/06/01 03:31:35;;;;;;;;;;;;;;;14.12;85.30;95375.63;5136480;27;1036;-48
2022/06/01 03:34:02;;;;;;;;;;;;;;;14.15;85.59;95377.94;5136319;27;1204;-48
2022/06/01 03:36:28;;;;;;;;;;;;;;;14.11;86.31;95382.84;5136089;27;1016;-48
2022/06/01 03:38:54;;;;;;;;;;;;;;;14.06;86.16;95374.47;5136377;27;1011;-49
2022/06/01 03:41:22;;;;;;;;;;;;;;;14.13;86.31;95379.97;5136028;27;1048;-48
2022/06/01 03:46:33;;;;;;;;;;;;;;;14.44;86.43;95383.47;5136052;27;1906;-48
2022/06/01 03:48:59;;;;;;;;;;;;;;;14.71;85.59;95385.81;5136413;27;977;-48
2022/06/01 03:51:26;;;;;;;;;;;;;;;14.98;85.02;95382.53;5135885;27;1152;-48
2022/06/01 03:53:53;;;;;;;;;;;;;;;15.14;84.96;95388.78;5136035;27;1128;-55
2022/06/01 03:56:22;;;;;;;;;;;;;;;15.28;84.63;95379.06;5136010;27;947;-48
2022/06/01 03:58:49;;;;;;;;;;;;;;;15.46;84.27;95384.06;5135761;27;1028;-48
2022/06/01 04:01:16;;;;;;;;;;;;;;;15.60;83.34;95383.25;5135888;27;1051;-48
2022/06/01 04:03:42;;;;;;;;;;;;;;;15.68;83.68;95380.44;5135727;27;1028;-49
2022/06/01 04:06:08;;;;;;;;;;;;;;;15.58;83.92;95382.59;5124121;27;1988;-49
2022/06/01 04:08:34;;;;;;;;;;;;;;;15.75;84.03;95383.28;5115359;28;1052;-48
2022/06/01 04:11:00;;;;;;;;;;;;;;;16.02;82.94;95383.59;5115108;28;980;-48
2022/06/01 04:13:27;;;;;;;;;;;;;;;16.08;83.20;95380.97;5115139;28;1006;-48
2022/06/01 04:15:53;;;;;;;;;;;;;;;16.20;83.95;95379.47;5115102;28;960;-49
2022/06/01 04:18:19;;;;;;;;;;;;;;;16.35;84.14;95386.66;5115286;28;969;-49
2022/06/01 04:20:46;;;;;;;;;;;;;;;16.45;83.21;95378.25;5114808;28;1017;-49
2022/06/01 04:23:12;;;;;;;;;;;;;;;16.60;82.66;95384.44;5114540;28;1083;-49
2022/06/01 04:25:38;;;;;;;;;;;;;;;16.75;82.87;95379.81;5114441;28;1918;-49
2022/06/01 04:28:04;;;;;;;;;;;;;;;16.89;81.96;95390.75;5113714;28;1056;-49
2022/06/01 04:30:30;;;;;;;;;;;;;;;16.94;81.42;95391.84;5114731;28;1000;-49
2022/06/01 04:32:57;;;;;;;;;;;;;;;17.01;80.47;95383.78;5114716;28;1041;-48
2022/06/01 04:35:23;;;;;;;;;;;;;;;17.06;81.65;95392.16;5113577;28;1023;-49
2022/06/01 04:37:50;;;;;;;;;;;;;;;17.04;80.81;95386.13;5114551;28;969;-49
2022/06/01 04:40:16;;;;;;;;;;;;;;;17.15;81.38;95390.97;5114477;28;1059;-48
2022/06/01 04:42:42;;;;;;;;;;;;;;;17.22;79.60;95401.81;5114450;28;1047;-48
2022/06/01 04:45:10;;;;;;;;;;;;;;;17.30;80.68;95401.69;5114293;28;1906;-49
2022/06/01 04:47:37;;;;;;;;;;;;;;;17.40;78.74;95392.41;5114296;28;992;-49
2022/06/01 04:50:04;;;;;;;;;;;;;;;17.58;78.20;95395.41;5114610;28;967;-49
2022/06/01 04:52:30;;;;;;;;;;;;;;;17.70;77.19;95401.09;5114365;28;996;-49
2022/06/01 04:54:56;;;;;;;;;;;;;;;17.73;77.43;95404.25;5114314;28;1000;-49
2022/06/01 04:57:22;;;;;;;;;;;;;;;17.85;77.58;95407.28;5113959;28;1063;-48
2022/06/01 04:59:48;;;;;;;;;;;;;;;17.99;77.52;95407.34;5114019;28;1024;-49
2022/06/01 05:02:15;;;;;;;;;;;;;;;17.97;76.76;95409.41;5113972;28;1008;-49
2022/06/01 05:04:41;;;;;;;;;;;;;;;18.00;76.50;95409.00;5114104;28;1910;-49
2022/06/01 05:07:07;;;;;;;;;;;;;;;18.12;76.90;95407.38;5133923;27;1153;-49
2022/06/01 05:09:34;;;;;;;;;;;;;;;18.33;76.53;95411.84;5134440;27;1033;-49
2022/06/01 05:12:00;;;;;;;;;;;;;;;18.51;76.07;95412.06;5134566;27;965;-49
2022/06/01 05:14:26;;;;;;;;;;;;;;;18.63;76.12;95409.63;5134475;27;1044;-48
2022/06/01 05:16:56;;;;;;;;;;;;;;;18.84;74.88;95419.50;5134569;27;971;-49
2022/06/01 05:19:22;;;;;;;;;;;;;;;19.63;72.33;95420.53;5134688;27;941;-49
2022/06/01 05:21:48;;;;;;;;;;;;;;;19.91;70.68;95416.75;5134583;27;1063;-50
2022/06/01 05:24:14;;;;;;;;;;;;;;;19.81;71.35;95409.06;5133876;27;1845;-49
2022/06/01 05:26:40;;;;;;;;;;;;;;;19.56;72.81;95411.59;5134370;27;2020;-49
2022/06/01 05:29:06;;;;;;;;;;;;;;;19.51;72.61;95419.50;5134274;27;960;-49
2022/06/01 05:31:32;;;;;;;;;;;;;;;19.75;71.39;95422.63;5134337;27;1055;-49
2022/06/01 05:33:58;;;;;;;;;;;;;;;19.97;71.89;95410.47;5134048;28;1036;-49
2022/06/01 05:36:24;;;;;;;;;;;;;;;19.62;72.28;95421.56;5134381;27;967;-49
2022/06/01 05:38:51;;;;;;;;;;;;;;;19.52;72.86;95421.19;5133941;27;1063;-49
2022/06/01 05:41:17;;;;;;;;;;;;;;;19.58;73.56;95417.63;5134475;27;1048;-49
2022/06/01 05:43:43;;;;;;;;;;;;;;;19.78;73.28;95414.06;5134103;28;1033;-49
2022/06/01 05:46:09;;;;;;;;;;;;;;;19.86;73.47;95414.69;5136733;27;1965;-49
2022/06/01 05:48:36;;;;;;;;;;;;;;;19.92;74.02;95413.00;5138146;27;1080;-49
2022/06/01 05:51:02;;;;;;;;;;;;;;;19.97;73.52;95413.16;5138695;27;961;-48
2022/06/01 05:53:28;;;;;;;;;;;;;;;20.26;72.05;95414.56;5138466;27;961;-50
2022/06/01 05:55:54;;;;;;;;;;;;;;;20.36;72.07;95407.84;5138593;27;1007;-49
2022/06/01 05:58:22;;;;;;;;;;;;;;;20.36;72.82;95405.94;5137972;27;1942;-49
2022/06/01 06:00:49;;;;;;;;;;;;;;;20.51;72.10;95405.66;5138372;27;968;-49
2022/06/01 06:03:16;;;;;;;;;;;;;;;20.60;70.80;95401.69;5138265;27;960;-49
2022/06/01 06:08:27;;;;;;;;;;;;;;;20.73;71.00;95406.19;5117541;28;1039;-49
2022/06/01 06:10:53;;;;;;;;;;;;;;;20.81;70.78;95405.09;5117695;28;1034;-49
2022/06/01 06:13:19;;;;;;;;;;;;;;;20.95;69.85;95408.56;5117449;28;1048;-49
2022/06/01 06:15:45;;;;;;;;;;;;;;;20.98;69.90;95408.09;5117731;28;1027;-49
2022/06/01 06:18:12;;;;;;;;;;;;;;;21.05;70.14;95398.84;5117481;28;957;-49
2022/06/01 06:20:41;;;;;;;;;;;;;;;21.05;70.62;95407.00;5117076;28;1016;-49
2022/06/01 06:23:08;;;;;;;;;;;;;;;21.25;70.33;95403.31;5116851;28;1092;-49
2022/06/01 06:25:35;;;;;;;;;;;;;;;21.41;68.89;95400.03;5116835;28;1913;-49
2022/06/01 06:28:01;;;;;;;;;;;;;;;21.52;69.89;95394.97;5116907;28;1193;-49
2022/06/01 06:30:27;;;;;;;;;;;;;;;21.69;69.22;95396.03;5117003;28;928;-49
2022/06/01 06:32:53;;;;;;;;;;;;;;;21.67;69.96;95392.72;5117023;28;1063;-49
2022/06/01 06:35:19;;;;;;;;;;;;;;;21.95;68.70;95389.50;5116920;28;1007;-49
2022/06/01 06:37:45;;;;;;;;;;;;;;;22.20;67.57;95392.13;5117131;28;968;-49
2022/06/01 06:40:12;;;;;;;;;;;;;;;22.28;66.53;95392.91;5116929;28;1128;-49
2022/06/01 06:42:38;;;;;;;;;;;;;;;22.29;66.23;95392.69;5116862;28;1024;-47
2022/06/01 06:45:05;;;;;;;;;;;;;;;22.51;66.17;95386.75;5116632;28;1905;-48
2022/06/01 06:47:34;;;;;;;;;;;;;;;22.52;67.16;95382.94;5116726;28;1024;-48
2022/06/01 06:50:03;;;;;;;;;;;;;;;22.64;68.09;95383.84;5116811;28;1005;-49
2022/06/01 06:52:29;;;;;;;;;;;;;;;22.71;66.06;95372.81;5116925;28;1035;-49
2022/06/01 06:54:56;;;;;;;;;;;;;;;22.63;65.07;95382.16;5116445;28;1031;-48
2022/06/01 06:57:22;;;;;;;;;;;;;;;22.78;66.24;95371.69;5115140;28;1004;-49
2022/06/01 06:59:48;;;;;;;;;;;;;;;22.91;65.08;95367.09;5116303;28;1032;-48
2022/06/01 07:02:16;;;;;;;;;;;;;;;22.98;64.73;95367.81;5116572;28;1023;-49
2022/06/01 07:04:46;;;;;;;;;;;;;;;23.13;65.84;95372.88;5116387;28;1996;-49
2022/06/01 07:07:13;;;;;;;;;;;;;;;23.09;65.36;95372.50;5135860;27;1193;-49
2022/06/01 07:09:40;;;;;;;;;;;;;;;23.14;63.79;95369.88;5136956;27;1036;-49
2022/06/01 07:12:06;;;;;;;;;;;;;;;23.29;63.78;95365.88;5136739;27;1072;-49
2022/06/01 07:14:32;;;;;;;;;;;;;;;23.37;63.58;95360.06;5136666;27;1055;-48
2022/06/01 07:16:59;;;;;;;;;;;;;;;23.43;63.00;95364.59;5136729;27;1027;-48
2022/06/01 07:19:26;;;;;;;;;;;;;;;23.43;60.78;95361.03;5136399;27;1858;-48
2022/06/01 07:21:52;;;;;;;;;;;;;;;23.58;61.48;95364.97;5136804;27;1238;-49
2022/06/01 07:24:19;;;;;;;;;;;;;;;23.73;61.99;95367.22;5136171;27;1047;-48
2022/06/01 07:26:45;;;;;;;;;;;;;;;23.82;61.50;95369.59;5136508;27;1988;-49
2022/06/01 07:29:13;;;;;;;;;;;;;;;23.75;60.81;95362.34;5136445;27;1019;-49
2022/06/01 07:31:39;;;;;;;;;;;;;;;23.77;60.16;95356.63;5136423;27;1018;-49
2022/06/01 07:34:06;;;;;;;;;;;;;;;23.81;61.17;95360.59;5136532;27;1011;-48
2022/06/01 07:36:32;;;;;;;;;;;;;;;23.90;60.83;95361.91;5136595;27;999;-49
2022/06/01 07:44:39;;;;;;;;;;;;;;;24.44;60.63;95355.34;5136190;27;1918;-49
2022/06/01 07:47:05;;;;;;;;;;;;;;;24.35;59.73;95360.34;5136428;27;968;-48
2022/06/01 07:49:31;;;;;;;;;;;;;;;24.46;60.67;95354.00;5136031;27;1031;-49
2022/06/01 07:51:57;;;;;;;;;;;;;;;24.62;61.09;95355.16;5136172;27;1024;-48
2022/06/01 07:54:23;;;;;;;;;;;;;;;24.61;58.43;95361.72;5135881;27;1051;-49
2022/06/01 07:56:50;;;;;;;;;;;;;;;24.67;59.53;95351.72;5136016;27;961;-48
2022/06/01 07:59:16;;;;;;;;;;;;;;;24.80;59.01;95358.78;5136205;27;963;-49
2022/06/01 08:01:43;;;;;;;;;;;;;;;24.87;57.86;95356.72;5134411;27;1850;-49
2022/06/01 08:04:09;;;;;;;;;;;;;;;25.00;59.81;95356.38;5135792;27;1032;-48
2022/06/01 08:06:37;;;;;;;;;;;;;;;25.17;58.81;95355.59;5120448;27;1906;-49
2022/06/01 08:09:03;;;;;;;;;;;;;;;25.11;57.01;95354.66;5114952;28;960;-49
2022/06/01 08:14:14;;;;;;;;;;;;;;;25.35;58.34;95352.66;5115020;28;1034;-49
2022/06/01 08:16:41;;;;;;;;;;;;;;;25.40;57.57;95351.88;5114746;28;1035;-49
2022/06/01 08:19:08;;;;;;;;;;;;;;;25.48;59.46;95355.03;5114954;28;1111;-48
2022/06/01 08:21:35;;;;;;;;;;;;;;;25.45;57.18;95350.06;5114774;28;957;-49
2022/06/01 08:24:02;;;;;;;;;;;;;;;25.35;57.50;95347.16;5114456;28;1850;-49
2022/06/01 08:26:29;;;;;;;;;;;;;;;25.48;57.17;95354.22;5114683;28;1914;-49
2022/06/01 08:28:55;;;;;;;;;;;;;;;25.50;57.18;95347.41;5115032;28;964;-49
2022/06/01 08:31:21;;;;;;;;;;;;;;;25.75;57.83;95356.25;5114492;28;1058;-49
2022/06/01 08:33:47;;;;;;;;;;;;;;;25.77;53.67;95352.19;5114673;28;1020;-49
2022/06/01 08:36:13;;;;;;;;;;;;;;;25.78;57.13;95342.91;5114460;28;1008;-49
2022/06/01 08:38:39;;;;;;;;;;;;;;;25.92;55.33;95345.31;5114461;28;972;-49
2022/06/01 08:41:08;;;;;;;;;;;;;;;25.88;53.24;95345.75;5114241;28;936;-49
2022/06/01 08:43:37;;;;;;;;;;;;;;;26.05;56.66;95350.41;5114364;27;1020;-49
2022/06/01 08:46:04;;;;;;;;;;;;;;;26.05;57.02;95348.50;5114490;28;1909;-49
2022/06/01 08:48:31;;;;;;;;;;;;;;;26.31;56.15;95351.53;5114478;28;1039;-49
2022/06/01 08:50:58;;;;;;;;;;;;;;;26.33;55.31;95345.81;5112964;28;1867;-48
2022/06/01 08:53:24;;;;;;;;;;;;;;;26.13;55.04;95343.66;5113926;28;1059;-49
2022/06/01 08:56:01;;;;;;;;;;;;;;;26.09;55.68;95344.16;5114339;28;1044;-49
2022/06/01 08:58:27;;;;;;;;;;;;;;;26.16;56.56;95340.41;5114376;28;1063;-49
2022/06/01 09:01:05;;;;;;;;;;;;;;;26.24;55.55;95334.50;5114277;28;1019;-49
2022/06/01 09:03:38;;;;;;;;;;;;;;;26.37;52.45;95338.72;5114429;28;1048;-49
2022/06/01 09:06:10;;;;;;;;;;;;;;;26.41;55.30;95332.50;5124574;27;1906;-49
2022/06/01 09:08:48;;;;;;;;;;;;;;;26.58;54.60;95335.16;5134523;27;1102;-49
2022/06/01 09:11:17;;;;;;;;;;;;;;;26.77;54.80;95321.09;5134579;27;1032;-49
2022/06/01 09:13:57;;;;;;;;;;;;;;;26.91;53.17;95327.81;5134582;27;1015;-49
2022/06/01 09:16:28;;;;;;;;;;;;;;;26.92;51.59;95324.00;5134317;27;1031;-49
2022/06/01 09:18:54;;;;;;;;;;;;;;;26.85;52.72;95321.47;5134607;27;1053;-49
2022/06/01 09:24:16;;;;;;;;;;;;;;;26.78;51.33;95314.53;5134093;27;1317;-49
2022/06/01 09:27:08;;;;;;;;;;;;;;;26.83;50.10;95311.84;5133968;27;1906;-49
2022/06/01 09:29:42;;;;;;;;;;;;;;;26.84;48.67;95308.84;5130723;27;1602;-49
2022/06/01 09:32:12;;;;;;;;;;;;;;;26.90;49.63;95312.47;5134468;27;1021;-49
2022/06/01 09:34:42;;;;;;;;;;;;;;;26.91;50.22;95318.78;5134339;27;983;-49
2022/06/01 09:37:13;;;;;;;;;;;;;;;27.13;49.61;95308.56;5134102;27;944;-49
2022/06/01 09:39:47;;;;;;;;;;;;;;;27.19;47.85;95310.25;5134500;27;985;-49
2022/06/01 09:42:16;;;;;;;;;;;;;;;27.18;48.66;95307.75;5134426;27;949;-49
2022/06/01 09:44:44;;;;;;;;;;;;;;;27.26;49.33;95304.53;5134150;27;1901;-49
2022/06/01 09:47:21;;;;;;;;;;;;;;;27.37;48.28;95306.28;5134002;27;1078;-49
2022/06/01 09:49:51;;;;;;;;;;;;;;;27.37;48.81;95309.03;5134459;27;961;-48
2022/06/01 09:52:40;;;;;;;;;;;;;;;27.39;46.46;95306.84;5134254;27;1071;-49
2022/06/01 09:55:12;;;;;;;;;;;;;;;27.46;48.63;95304.72;5133892;27;960;-49
2022/06/01 09:57:39;;;;;;;;;;;;;;;27.49;47.42;95302.53;5134122;27;1062;-49
2022/06/01 10:06:07;;;;;;;;;;;;;;;27.66;44.93;95305.94;5124066;28;2012;-49
2022/06/01 10:08:35;;;;;;;;;;;;;;;27.69;45.37;95293.59;5113445;28;1032;-49
2022/06/01 10:11:04;;;;;;;;;;;;;;;27.71;42.15;95303.22;5113627;28;1120;-49
2022/06/01 10:13:31;;;;;;;;;;;;;;;27.70;42.68;95296.09;5113437;28;940;-49
2022/06/01 10:16:00;;;;;;;;;;;;;;;27.81;41.02;95291.44;5113728;28;1020;-49
2022/06/01 10:18:29;;;;;;;;;;;;;;;27.76;42.96;95285.94;5113118;28;1845;-49
2022/06/01 10:21:07;;;;;;;;;;;;;;;27.71;43.47;95281.25;5113617;28;1031;-49
2022/06/01 10:23:36;;;;;;;;;;;;;;;27.73;42.15;95283.72;5112744;28;1079;-49
2022/06/01 10:26:13;;;;;;;;;;;;;;;27.85;46.09;95274.19;5113107;28;1984;-49
2022/06/01 10:28:45;;;;;;;;;;;;;;;27.90;43.57;95278.09;5113375;28;1063;-49
2022/06/01 10:31:18;;;;;;;;;;;;;;;27.98;42.94;95272.91;5113822;28;1020;-49
2022/06/01 10:33:47;;;;;;;;;;;;;;;27.98;42.73;95274.81;5117034;28;1043;-49
2022/06/01 10:36:13;;;;;;;;;;;;;;;27.97;42.06;95278.66;5116950;28;1033;-49
2022/06/01 10:39:03;;;;;;;;;;;;;;;28.04;44.70;95274.59;5116984;28;988;-49
2022/06/01 10:41:32;;;;;;;;;;;;;;;28.08;44.03;95269.38;5116827;27;1839;-49
2022/06/01 10:44:05;;;;;;;;;;;;;;;28.07;44.02;95264.97;5116910;28;1024;-49
2022/06/01 10:46:40;;;;;;;;;;;;;;;28.03;43.44;95267.41;5116683;27;1926;-49
2022/06/01 10:49:26;;;;;;;;;;;;;;;28.14;43.69;95271.03;5116881;28;992;-49
2022/06/01 10:51:55;;;;;;;;;;;;;;;28.16;40.91;95266.09;5116759;28;1016;-49
2022/06/01 10:54:28;;;;;;;;;;;;;;;28.18;42.76;95255.66;5116251;28;1087;-49
2022/06/01 10:56:55;;;;;;;;;;;;;;;28.21;40.44;95249.63;5116563;28;1013;-49
2022/06/01 10:59:24;;;;;;;;;;;;;;;28.27;43.32;95252.38;5116394;28;1068;-49
2022/06/01 11:01:52;;;;;;;;;;;;;;;28.34;38.80;95251.06;5116765;28;1014;-49
2022/06/01 11:04:24;;;;;;;;;;;;;;;28.38;39.87;95251.31;5116577;28;964;-49
2022/06/01 11:06:53;;;;;;;;;;;;;;;28.33;37.61;95246.63;5133916;27;1913;-49
2022/06/01 11:09:38;;;;;;;;;;;;;;;28.29;39.74;95251.03;5136562;27;995;-49
2022/06/01 11:12:10;;;;;;;;;;;;;;;28.37;40.55;95236.75;5137053;27;964;-50
2022/06/01 11:14:39;;;;;;;;;;;;;;;28.55;43.48;95245.59;5136557;27;1032;-49
2022/06/01 11:17:12;;;;;;;;;;;;;;;28.64;41.25;95235.72;5136745;27;1021;-49
2022/06/01 11:19:41;;;;;;;;;;;;;;;28.55;42.08;95242.84;5136447;27;1969;-49
2022/06/01 11:22:25;;;;;;;;;;;;;;;28.60;40.77;95238.19;5136772;27;1095;-50
2022/06/01 11:25:10;;;;;;;;;;;;;;;28.52;40.76;95241.47;5136268;27;1909;-49
2022/06/01 11:27:55;;;;;;;;;;;;;;;28.45;43.15;95229.06;5136739;27;1032;-49
2022/06/01 11:30:26;;;;;;;;;;;;;;;28.49;42.57;95225.47;5136813;27;1036;-49
2022/06/01 11:32:52;;;;;;;;;;;;;;;28.65;43.76;95223.63;5136580;27;984;-49
2022/06/01 11:35:19;;;;;;;;;;;;;;;28.60;40.09;95229.94;5136424;27;1037;-49
2022/06/01 11:37:52;;;;;;;;;;;;;;;28.44;41.71;95225.50;5136367;27;1051;-49
2022/06/01 11:40:37;;;;;;;;;;;;;;;28.51;43.69;95223.28;5136328;27;969;-49
2022/06/01 11:43:12;;;;;;;;;;;;;;;28.51;39.16;95219.72;5135437;27;1084;-49
2022/06/01 11:45:51;;;;;;;;;;;;;;;28.60;41.66;95218.94;5136383;27;1918;-49
2022/06/01 11:48:22;;;;;;;;;;;;;;;28.79;42.67;95213.72;5136297;27;1069;-49
2022/06/01 11:50:57;;;;;;;;;;;;;;;28.78;39.14;95217.59;5136177;27;1995;-49
2022/06/01 11:53:36;;;;;;;;;;;;;;;28.64;41.98;95210.16;5135882;27;1015;-49
2022/06/01 11:56:25;;;;;;;;;;;;;;;28.57;41.48;95203.00;5136385;27;1077;-49
2022/06/01 11:59:09;;;;;;;;;;;;;;;28.40;39.85;95205.97;5097658;27;1166;-49
2022/06/01 12:01:35;;;;;;;;;;;;;;;28.15;39.59;95206.75;5135729;27;1054;-49
2022/06/01 12:04:17;;;;;;;;;;;;;;;28.06;42.32;95211.09;5136113;27;970;-49
2022/06/01 12:06:58;;;;;;;;;;;;;;;27.94;39.89;95196.75;5119543;27;1888;-49
2022/06/01 12:09:24;;;;;;;;;;;;;;;28.03;43.16;95203.41;5115122;28;1059;-49
2022/06/01 12:11:50;;;;;;;;;;;;;;;28.20;42.03;95195.75;5115098;28;1047;-49
2022/06/01 12:14:36;;;;;;;;;;;;;;;28.38;40.93;95196.31;5114934;28;969;-49
2022/06/01 12:17:18;;;;;;;;;;;;;;;28.42;42.36;95197.44;5110994;28;1165;-49
2022/06/01 12:19:48;;;;;;;;;;;;;;;28.37;44.10;95194.69;5114825;28;1019;-49
2022/06/01 12:28:56;;;;;;;;;;;;;;;28.47;44.09;95183.69;5114444;28;1203;-50
2022/06/01 12:31:26;;;;;;;;;;;;;;;28.62;43.12;95186.47;5114877;28;1000;-49
2022/06/01 12:34:10;;;;;;;;;;;;;;;28.70;44.19;95182.34;5114744;28;992;-49
2022/06/01 12:36:36;;;;;;;;;;;;;;;28.86;42.68;95187.88;5114575;28;1095;-49
2022/06/01 12:39:11;;;;;;;;;;;;;;;28.86;40.93;95190.63;5114329;28;1039;-49
2022/06/01 12:41:39;;;;;;;;;;;;;;;28.69;40.54;95196.41;5114506;28;1960;-49
2022/06/01 12:44:07;;;;;;;;;;;;;;;28.56;40.01;95190.31;5114385;27;1058;-49
2022/06/01 12:46:41;;;;;;;;;;;;;;;28.61;42.53;95189.53;5114311;28;1917;-49
2022/06/01 12:49:20;;;;;;;;;;;;;;;28.55;39.97;95191.44;5114194;28;1103;-49
2022/06/01 12:51:46;;;;;;;;;;;;;;;28.48;42.59;95181.78;5114235;28;1023;-49
2022/06/01 12:54:23;;;;;;;;;;;;;;;28.43;42.37;95188.09;5113863;28;992;-49
2022/06/01 12:56:49;;;;;;;;;;;;;;;28.36;42.75;95196.63;5114184;28;992;-49
2022/06/01 12:59:15;;;;;;;;;;;;;;;28.28;43.56;95193.56;5114056;28;1297;-49
2022/06/01 13:01:41;;;;;;;;;;;;;;;28.15;44.10;95198.50;5114047;28;1084;-49
2022/06/01 13:04:07;;;;;;;;;;;;;;;28.00;43.40;95196.53;5114322;28;1028;-48
2022/06/01 13:06:39;;;;;;;;;;;;;;;27.78;43.61;95220.59;5128757;27;1913;-49
2022/06/01 13:09:09;;;;;;;;;;;;;;;27.37;46.25;95221.19;5134814;27;944;-49
2022/06/01 13:11:38;;;;;;;;;;;;;;;26.85;48.27;95233.69;5134568;27;987;-49
2022/06/01 13:14:06;;;;;;;;;;;;;;;26.59;48.55;95229.03;5134801;27;953;-49
2022/06/01 13:16:51;;;;;;;;;;;;;;;26.48;49.80;95231.69;5134622;27;1118;-49
2022/06/01 13:19:20;;;;;;;;;;;;;;;26.27;50.66;95236.16;5135207;27;1048;-49
2022/06/01 13:21:49;;;;;;;;;;;;;;;26.12;51.68;95235.94;5134692;27;1123;-48
2022/06/01 13:24:15;;;;;;;;;;;;;;;26.07;51.67;95230.44;5134246;27;1113;-49
2022/06/01 13:26:44;;;;;;;;;;;;;;;26.04;50.79;95228.19;5134007;27;1914;-49
2022/06/01 13:29:16;;;;;;;;;;;;;;;26.01;49.73;95220.47;5134353;27;1184;-49
2022/06/01 13:31:43;;;;;;;;;;;;;;;26.06;50.64;95220.56;5134381;27;968;-49
2022/06/01 13:34:17;;;;;;;;;;;;;;;26.09;49.65;95217.31;5134638;27;964;-49
2022/06/01 13:36:43;;;;;;;;;;;;;;;26.11;50.38;95220.63;5134315;27;1027;-49
2022/06/01 13:39:11;;;;;;;;;;;;;;;26.18;49.42;95210.28;5134267;27;1024;-49
2022/06/01 13:41:41;;;;;;;;;;;;;;;26.26;50.49;95215.28;5133987;27;1039;-48
2022/06/01 13:44:11;;;;;;;;;;;;;;;26.33;51.92;95214.25;5134623;27;1133;-48